createdAt,value
2019-05-11T00:01:31.002Z,22.35
2019-05-11T00:06:35.014Z,22.33
2019-05-11T00:11:39.123Z,22.34
2019-05-11T00:16:43.118Z,22.34
2019-05-11T00:21:47.127Z,22.34
2019-05-11T00:26:51.189Z,22.33
2019-05-11T00:31:55.177Z,22.33
2019-05-11T00:36:59.213Z,22.33
2019-05-11T00:42:03.207Z,22.33
2019-05-11T00:47:07.206Z,22.34
2019-05-11T00:52:11.276Z,22.34
2019-05-11T00:57:15.266Z,22.34
2019-05-11T01:02:19.253Z,22.34
2019-05-11T01:07:23.262Z,22.33
2019-05-11T01:12:27.306Z,22.34
2019-05-11T01:17:31.381Z,22.34
2019-05-11T01:22:35.385Z,22.32
2019-05-11T01:27:39.441Z,22.32
2019-05-11T01:32:43.589Z,22.30
2019-05-11T01:37:47.686Z,22.28
2019-05-11T01:42:51.767Z,22.27
2019-05-11T01:47:55.799Z,22.24
2019-05-11T01:52:59.862Z,22.22
2019-05-11T01:58:03.966Z,22.21
2019-05-11T02:03:07.952Z,22.20
2019-05-11T02:08:11.953Z,22.17
2019-05-11T02:13:15.940Z,22.18
2019-05-11T02:18:20.002Z,22.18
2019-05-11T02:23:23.984Z,22.18
2019-05-11T02:28:27.997Z,22.13
2019-05-11T02:33:31.997Z,22.11
2019-05-11T02:38:35.997Z,21.99
2019-05-11T02:43:40.730Z,22.05
2019-05-11T02:48:44.791Z,22.01
2019-05-11T02:53:50.144Z,22.01
2019-05-11T02:58:54.225Z,21.98
2019-05-11T03:03:58.243Z,21.88
2019-05-11T03:09:02.257Z,21.96
2019-05-11T03:14:06.410Z,21.93
2019-05-11T03:19:10.530Z,21.93
2019-05-11T03:24:14.645Z,21.93
2019-05-11T03:29:18.676Z,21.91
2019-05-11T03:34:22.693Z,21.87
2019-05-11T03:39:26.824Z,21.84
2019-05-11T03:44:30.824Z,21.85
2019-05-11T03:49:34.879Z,21.85
2019-05-11T03:54:38.906Z,21.85
2019-05-11T03:59:42.922Z,21.74
2019-05-11T04:04:46.945Z,21.80
2019-05-11T04:09:50.974Z,21.80
2019-05-11T04:14:54.974Z,21.81
2019-05-11T04:19:59.048Z,21.80
2019-05-11T04:25:03.483Z,21.78
2019-05-11T04:30:07.915Z,21.79
2019-05-11T04:35:12.072Z,21.78
2019-05-11T04:40:16.218Z,21.77
2019-05-11T04:45:20.306Z,21.77
2019-05-11T04:50:24.367Z,21.77
2019-05-11T04:55:28.369Z,21.77
2019-05-11T05:00:32.524Z,21.76
2019-05-11T05:05:36.604Z,21.75
2019-05-11T05:10:40.606Z,21.77
2019-05-11T05:15:44.626Z,21.80
2019-05-11T05:20:48.603Z,21.84
2019-05-11T05:25:52.581Z,21.85
2019-05-11T05:30:56.563Z,21.90
2019-05-11T05:36:00.546Z,21.90
2019-05-11T05:41:04.738Z,21.92
2019-05-11T05:46:08.740Z,21.95
2019-05-11T05:51:12.748Z,21.95
2019-05-11T05:56:16.741Z,21.90
2019-05-11T06:01:20.779Z,21.92
2019-05-11T06:06:24.825Z,22.01
2019-05-11T06:11:28.814Z,21.94
2019-05-11T06:16:33.020Z,22.04
2019-05-11T06:21:37.130Z,22.06
2019-05-11T06:26:41.131Z,22.06
2019-05-11T06:31:45.208Z,22.07
2019-05-11T06:36:49.190Z,22.03
2019-05-11T06:41:53.285Z,21.99
2019-05-11T06:46:57.296Z,21.96
2019-05-11T06:52:01.282Z,21.91
2019-05-11T06:57:05.357Z,21.86
2019-05-11T07:02:09.394Z,22.02
2019-05-11T07:07:13.477Z,22.02
2019-05-11T07:12:17.640Z,21.92
2019-05-11T07:17:21.657Z,21.87
2019-05-11T07:22:25.654Z,21.67
2019-05-11T07:27:29.670Z,21.87
2019-05-11T07:32:33.686Z,20.80
2019-05-11T07:37:38.477Z,19.62
2019-05-11T07:42:42.976Z,19.62
2019-05-11T07:47:48.527Z,20.91
2019-05-11T07:52:53.118Z,21.22
2019-05-11T07:57:58.554Z,21.27
2019-05-11T08:03:03.137Z,21.30
2019-05-11T08:08:08.738Z,21.31
2019-05-11T08:13:12.912Z,21.34
2019-05-11T08:18:18.936Z,21.32
2019-05-11T08:55:33.950Z,21.37
2019-05-11T09:00:38.979Z,21.31
2019-05-11T09:05:43.230Z,21.23
2019-05-11T09:10:48.996Z,21.30
2019-05-11T09:15:53.094Z,21.29
2019-05-11T09:20:57.823Z,21.29
2019-05-11T09:26:01.916Z,21.28
2019-05-11T09:31:08.350Z,21.30
2019-05-11T09:36:11.829Z,21.30
2019-05-11T09:41:17.621Z,21.30
2019-05-11T09:46:21.733Z,21.27
2019-05-11T09:51:25.923Z,21.36
2019-05-11T09:56:29.925Z,21.36
2019-05-11T10:01:33.987Z,21.31
2019-05-11T10:06:39.014Z,21.33
2019-05-11T10:11:44.629Z,21.35
2019-05-11T10:16:49.242Z,21.35
2019-05-11T10:21:53.351Z,21.32
2019-05-11T10:26:57.944Z,21.33
2019-05-11T10:32:02.214Z,21.35
2019-05-11T10:37:08.553Z,21.41
2019-05-11T10:42:12.183Z,21.34
2019-05-11T10:47:18.376Z,21.20
2019-05-11T10:52:22.121Z,21.27
2019-05-11T10:57:28.276Z,21.26
2019-05-11T11:02:31.951Z,21.26
2019-05-11T11:07:38.271Z,21.28
2019-05-11T11:12:43.207Z,21.28
2019-05-11T11:17:48.589Z,21.26
2019-05-11T11:22:52.826Z,21.26
2019-05-11T11:27:57.851Z,21.24
2019-05-11T11:33:02.002Z,21.24
2019-05-11T11:38:08.506Z,21.16
2019-05-11T11:43:11.818Z,21.24
2019-05-11T11:48:15.933Z,21.23
2019-05-11T11:53:20.039Z,21.23
2019-05-11T11:58:24.120Z,21.24
2019-05-11T12:03:28.127Z,21.24
2019-05-11T12:08:32.128Z,21.12
2019-05-11T12:13:38.211Z,21.22
2019-05-11T12:18:41.853Z,21.22
2019-05-11T12:23:48.295Z,21.22
2019-05-11T12:28:51.687Z,21.22
2019-05-11T12:33:55.700Z,21.21
2019-05-11T12:38:59.678Z,21.21
2019-05-11T12:44:03.774Z,21.20
2019-05-11T12:49:07.991Z,21.20
2019-05-11T12:54:12.124Z,21.19
2019-05-11T12:59:18.554Z,21.19
2019-05-11T13:04:21.894Z,21.19
2019-05-11T13:09:25.932Z,21.09
2019-05-11T13:14:30.078Z,21.21
2019-05-11T13:19:34.285Z,21.21
2019-05-11T13:24:38.595Z,21.23
2019-05-11T13:29:42.629Z,21.28
2019-05-11T13:34:48.068Z,21.24
2019-05-11T13:39:52.143Z,21.21
2019-05-11T13:44:58.234Z,21.21
2019-05-11T13:50:01.845Z,21.20
2019-05-11T13:55:07.744Z,21.20
2019-05-11T14:00:12.579Z,21.20
2019-05-11T14:05:18.040Z,21.19
2019-05-11T14:10:22.282Z,21.17
2019-05-11T14:15:28.018Z,21.16
2019-05-11T14:20:32.335Z,21.16
2019-05-11T14:25:38.044Z,21.15
2019-05-11T14:30:42.102Z,21.14
2019-05-11T14:35:46.173Z,21.15
2019-05-11T14:40:50.230Z,21.17
2019-05-11T14:45:54.543Z,21.06
2019-05-11T14:50:59.290Z,21.13
2019-05-11T14:56:03.609Z,21.12
2019-05-11T15:01:08.849Z,21.12
2019-05-11T15:06:13.276Z,21.12
2019-05-11T15:11:19.144Z,21.11
2019-05-11T15:16:23.262Z,21.10
2019-05-11T15:21:30.496Z,21.11
2019-05-11T15:26:34.586Z,21.02
2019-05-11T15:31:38.563Z,21.08
2019-05-11T15:36:44.172Z,21.09
2019-05-11T15:41:48.328Z,21.07
2019-05-11T15:46:52.377Z,21.07
2019-05-11T15:51:58.062Z,21.11
2019-05-11T15:57:02.207Z,19.11
2019-05-11T16:02:08.449Z,19.13
2019-05-11T16:07:12.078Z,20.20
2019-05-11T16:12:17.826Z,20.96
2019-05-11T16:17:21.895Z,21.42
2019-05-11T16:22:27.921Z,21.66
2019-05-11T16:27:31.703Z,21.81
2019-05-11T16:32:38.409Z,21.94
2019-05-11T16:37:41.531Z,21.94
2019-05-11T16:42:47.700Z,21.92
2019-05-11T16:47:51.247Z,21.92
2019-05-11T16:52:55.301Z,21.93
2019-05-11T16:57:59.422Z,21.87
2019-05-11T17:03:03.752Z,21.81
2019-05-11T17:08:08.204Z,21.76
2019-05-11T17:13:12.350Z,21.76
2019-05-11T17:18:18.430Z,21.68
2019-05-11T17:23:22.202Z,21.61
2019-05-11T17:28:26.233Z,21.71
2019-05-11T17:33:30.337Z,21.82
2019-05-11T17:38:34.340Z,21.87
2019-05-11T17:43:38.732Z,21.87
2019-05-11T17:48:42.877Z,21.89
2019-05-11T17:53:48.273Z,21.95
2019-05-11T17:58:52.415Z,21.95
2019-05-11T18:03:58.308Z,22.01
2019-05-11T18:09:02.168Z,21.93
2019-05-11T18:14:08.442Z,21.87
2019-05-11T18:19:12.155Z,21.95
2019-05-11T18:24:17.879Z,21.96
2019-05-11T18:29:22.230Z,21.97
2019-05-11T18:34:26.362Z,21.97
2019-05-11T18:39:30.402Z,21.97
2019-05-11T18:44:34.483Z,21.98
2019-05-11T18:49:38.551Z,21.97
2019-05-11T18:54:42.641Z,22.00
2019-05-11T18:59:48.382Z,22.02
2019-05-11T19:04:52.613Z,22.05
2019-05-11T19:09:57.751Z,22.05
2019-05-11T19:15:01.914Z,22.04
2019-05-11T19:20:08.436Z,22.04
2019-05-11T19:25:12.589Z,22.04
2019-05-11T19:30:18.456Z,22.04
2019-05-11T19:35:22.657Z,22.04
2019-05-11T19:40:26.722Z,22.04
2019-05-11T19:45:30.848Z,22.04
2019-05-11T19:50:34.882Z,21.96
2019-05-11T19:55:38.895Z,22.04
2019-05-11T20:00:42.899Z,22.05
2019-05-11T20:05:48.485Z,22.05
2019-05-11T20:10:52.753Z,22.10
2019-05-11T20:15:57.832Z,22.04
2019-05-11T20:21:15.406Z,22.11
2019-05-11T20:26:08.894Z,22.11
2019-05-11T20:31:13.358Z,22.11
2019-05-11T20:36:17.854Z,22.03
2019-05-11T20:41:22.291Z,22.03
2019-05-11T20:46:27.757Z,22.16
2019-05-11T20:51:36.743Z,22.04
2019-05-11T20:56:38.796Z,22.11
2019-05-11T21:01:43.229Z,22.11
2019-05-11T21:06:47.619Z,22.11
2019-05-11T21:11:51.662Z,22.11
2019-05-11T21:16:58.328Z,22.12
2019-05-11T21:22:01.639Z,22.11
2019-05-11T21:27:05.815Z,22.03
2019-05-11T21:32:09.905Z,22.12
2019-05-11T21:37:13.918Z,22.05
2019-05-11T21:42:18.255Z,22.12
2019-05-11T21:47:22.382Z,22.14
2019-05-11T21:52:28.648Z,22.13
2019-05-11T21:57:32.179Z,22.13
2019-05-11T22:02:38.428Z,22.14
2019-05-11T22:07:42.206Z,22.13
2019-05-11T22:12:48.824Z,22.13
2019-05-11T22:17:51.969Z,22.15
2019-05-11T22:22:58.062Z,22.15
2019-05-11T22:28:01.761Z,22.14
2019-05-11T22:33:05.812Z,22.14
2019-05-11T22:38:09.832Z,22.15
2019-05-11T22:43:14.236Z,22.14
2019-05-11T22:48:18.312Z,22.14
2019-05-11T22:53:22.501Z,22.14
2019-05-11T22:58:26.606Z,22.14
2019-05-11T23:03:30.636Z,22.15
2019-05-11T23:08:34.706Z,22.13
2019-05-11T23:13:38.806Z,22.13
2019-05-11T23:18:42.813Z,22.13
2019-05-11T23:23:47.822Z,22.15
2019-05-11T23:28:52.011Z,22.14
2019-05-11T23:33:57.906Z,22.14
2019-05-11T23:39:01.737Z,22.14
2019-05-11T23:44:05.848Z,22.07
2019-05-11T23:49:09.878Z,22.13
2019-05-11T23:54:13.955Z,22.13
